CheckWX is a tool to help pilots better visualize weather data.  It is not intended as a substitute for an official pre-flight weather briefing.

05:32:23 UTC

SBSJ METAR
Professor Urbano Ernesto Stumpf Airport
São José Dos Campos, Brazil
Current

32 mins ago

SBSJ 180500Z 05004KT CAVOK 17/09 Q1019
Observed
Aug-18 @ 05:00 UTC
Wind
  • 050° at 4 KTS
Visibility
10,000+ meters
Flight Rules
VFR
Cloud Levels
  • Clear skies
Temperature
17°C / 63°F
Dewpoint
C / 48°F
Humidity
59%
Altimeter
30.09" Hg
Pressure
1018.92 hPa
Previous

2 hours ago

SBSJ 180400Z 00000KT CAVOK 15/09 Q1019
Observed
Aug-18 @ 04:00 UTC
Visibility
10,000+ meters
Flight Rules
VFR
Cloud Levels
  • Clear skies
Temperature
15°C / 59°F
Dewpoint
C / 48°F
Humidity
68%
Altimeter
30.09" Hg
Pressure
1018.92 hPa
Previous

3 hours ago

SBSJ 180300Z 08002KT CAVOK 17/09 Q1019
Observed
Aug-18 @ 03:00 UTC
Wind
  • 080° at 2 KTS
Visibility
10,000+ meters
Flight Rules
VFR
Cloud Levels
  • Clear skies
Temperature
17°C / 63°F
Dewpoint
C / 48°F
Humidity
59%
Altimeter
30.09" Hg
Pressure
1018.92 hPa